sensor_id;sensor_type;location;lat;lon;timestamp;pressure;altitude;pressure_sealevel;temperature;humidity
77118;BME280;66072;50.238;19.228;2023-02-28T00:01:22;99700.15;;;-1.12;65.72
77118;BME280;66072;50.238;19.228;2023-02-28T00:03:50;99699.30;;;-1.12;65.82
77118;BME280;66072;50.238;19.228;2023-02-28T00:06:18;99700.65;;;-1.12;66.09
77118;BME280;66072;50.238;19.228;2023-02-28T00:08:46;99698.98;;;-1.12;66.18
77118;BME280;66072;50.238;19.228;2023-02-28T00:11:15;99696.43;;;-1.14;66.19
77118;BME280;66072;50.238;19.228;2023-02-28T00:13:45;99696.56;;;-1.15;65.65
77118;BME280;66072;50.238;19.228;2023-02-28T00:16:18;99697.69;;;-1.17;66.04
77118;BME280;66072;50.238;19.228;2023-02-28T00:18:47;99699.17;;;-1.18;65.94
77118;BME280;66072;50.238;19.228;2023-02-28T00:21:16;99699.15;;;-1.20;66.12
77118;BME280;66072;50.238;19.228;2023-02-28T00:23:44;99698.58;;;-1.23;66.51
77118;BME280;66072;50.238;19.228;2023-02-28T00:26:11;99698.19;;;-1.26;66.53
77118;BME280;66072;50.238;19.228;2023-02-28T00:28:39;99694.55;;;-1.31;66.03
77118;BME280;66072;50.238;19.228;2023-02-28T00:31:07;99693.45;;;-1.36;66.36
77118;BME280;66072;50.238;19.228;2023-02-28T00:33:35;99690.63;;;-1.43;66.30
77118;BME280;66072;50.238;19.228;2023-02-28T00:36:08;99696.71;;;-1.48;66.38
77118;BME280;66072;50.238;19.228;2023-02-28T00:38:36;99699.41;;;-1.55;66.34
77118;BME280;66072;50.238;19.228;2023-02-28T00:41:04;99702.63;;;-1.61;66.55
77118;BME280;66072;50.238;19.228;2023-02-28T00:43:34;99707.20;;;-1.67;66.58
77118;BME280;66072;50.238;19.228;2023-02-28T00:46:03;99703.37;;;-1.73;66.57
77118;BME280;66072;50.238;19.228;2023-02-28T00:48:31;99702.40;;;-1.79;66.56
77118;BME280;66072;50.238;19.228;2023-02-28T00:50:59;99705.94;;;-1.85;66.82
77118;BME280;66072;50.238;19.228;2023-02-28T00:53:27;99710.34;;;-1.91;67.14
77118;BME280;66072;50.238;19.228;2023-02-28T00:55:55;99711.18;;;-1.98;67.25
77118;BME280;66072;50.238;19.228;2023-02-28T00:58:23;99718.40;;;-2.04;67.01
77118;BME280;66072;50.238;19.228;2023-02-28T01:00:53;99714.25;;;-2.09;67.83
77118;BME280;66072;50.238;19.228;2023-02-28T01:03:22;99715.30;;;-2.14;68.45
77118;BME280;66072;50.238;19.228;2023-02-28T01:05:50;99716.39;;;-2.18;68.33
77118;BME280;66072;50.238;19.228;2023-02-28T01:08:18;99717.83;;;-2.21;68.31
77118;BME280;66072;50.238;19.228;2023-02-28T01:10:45;99717.94;;;-2.23;68.84
77118;BME280;66072;50.238;19.228;2023-02-28T01:13:14;99713.15;;;-2.27;69.08
77118;BME280;66072;50.238;19.228;2023-02-28T01:15:46;99712.38;;;-2.31;69.29
77118;BME280;66072;50.238;19.228;2023-02-28T01:18:16;99709.92;;;-2.35;69.26
77118;BME280;66072;50.238;19.228;2023-02-28T01:20:44;99710.87;;;-2.38;69.16
77118;BME280;66072;50.238;19.228;2023-02-28T01:23:12;99713.45;;;-2.41;69.45
77118;BME280;66072;50.238;19.228;2023-02-28T01:25:39;99705.11;;;-2.46;69.70
77118;BME280;66072;50.238;19.228;2023-02-28T01:28:07;99704.46;;;-2.52;69.80
77118;BME280;66072;50.238;19.228;2023-02-28T01:30:35;99706.37;;;-2.56;69.80
77118;BME280;66072;50.238;19.228;2023-02-28T01:33:02;99706.59;;;-2.61;69.74
77118;BME280;66072;50.238;19.228;2023-02-28T01:35:34;99705.98;;;-2.64;70.00
77118;BME280;66072;50.238;19.228;2023-02-28T01:38:02;99700.71;;;-2.68;70.21
77118;BME280;66072;50.238;19.228;2023-02-28T01:40:47;99699.40;;;-2.73;70.33
77118;BME280;66072;50.238;19.228;2023-02-28T01:46:12;99697.77;;;-2.84;70.68
77118;BME280;66072;50.238;19.228;2023-02-28T01:48:49;99697.30;;;-2.89;70.63
77118;BME280;66072;50.238;19.228;2023-02-28T01:51:25;99700.72;;;-2.93;70.81
77118;BME280;66072;50.238;19.228;2023-02-28T01:54:11;99699.05;;;-2.98;70.99
77118;BME280;66072;50.238;19.228;2023-02-28T01:56:45;99698.05;;;-3.04;71.41
77118;BME280;66072;50.238;19.228;2023-02-28T01:59:22;99698.74;;;-3.09;71.69
77118;BME280;66072;50.238;19.228;2023-02-28T02:01:53;99696.26;;;-3.14;71.79
77118;BME280;66072;50.238;19.228;2023-02-28T02:04:23;99693.15;;;-3.18;72.15
77118;BME280;66072;50.238;19.228;2023-02-28T02:06:53;99692.69;;;-3.22;72.32
77118;BME280;66072;50.238;19.228;2023-02-28T02:09:21;99692.08;;;-3.27;72.60
77118;BME280;66072;50.238;19.228;2023-02-28T02:11:49;99689.76;;;-3.31;72.69
77118;BME280;66072;50.238;19.228;2023-02-28T02:14:30;99692.46;;;-3.36;72.89
77118;BME280;66072;50.238;19.228;2023-02-28T02:17:27;99690.48;;;-3.41;73.23
77118;BME280;66072;50.238;19.228;2023-02-28T02:31:04;99691.86;;;-3.68;73.96
77118;BME280;66072;50.238;19.228;2023-02-28T02:33:59;99691.06;;;-3.72;74.09
77118;BME280;66072;50.238;19.228;2023-02-28T02:36:35;99691.91;;;-3.77;74.38
77118;BME280;66072;50.238;19.228;2023-02-28T02:40:11;99691.60;;;-3.82;74.72
77118;BME280;66072;50.238;19.228;2023-02-28T02:42:31;99688.77;;;-3.87;74.77
77118;BME280;66072;50.238;19.228;2023-02-28T02:45:10;99684.46;;;-3.91;74.94
77118;BME280;66072;50.238;19.228;2023-02-28T02:47:40;99683.52;;;-3.94;75.12
77118;BME280;66072;50.238;19.228;2023-02-28T02:50:14;99684.92;;;-3.98;75.46
77118;BME280;66072;50.238;19.228;2023-02-28T02:52:48;99681.16;;;-4.00;75.72
77118;BME280;66072;50.238;19.228;2023-02-28T02:55:20;99679.58;;;-4.03;75.84
77118;BME280;66072;50.238;19.228;2023-02-28T02:57:51;99682.00;;;-4.06;75.89
77118;BME280;66072;50.238;19.228;2023-02-28T03:00:24;99681.39;;;-4.09;76.09
77118;BME280;66072;50.238;19.228;2023-02-28T03:02:54;99679.45;;;-4.12;76.35
77118;BME280;66072;50.238;19.228;2023-02-28T03:05:26;99679.84;;;-4.16;76.57
77118;BME280;66072;50.238;19.228;2023-02-28T03:07:55;99683.91;;;-4.19;76.72
77118;BME280;66072;50.238;19.228;2023-02-28T03:10:43;99690.21;;;-4.20;76.84
77118;BME280;66072;50.238;19.228;2023-02-28T03:24:03;99692.64;;;-4.28;77.60
77118;BME280;66072;50.238;19.228;2023-02-28T03:26:38;99693.41;;;-4.30;77.84
77118;BME280;66072;50.238;19.228;2023-02-28T03:29:22;99693.08;;;-4.30;77.85
77118;BME280;66072;50.238;19.228;2023-02-28T03:31:55;99694.39;;;-4.30;78.03
77118;BME280;66072;50.238;19.228;2023-02-28T03:34:30;99694.73;;;-4.30;78.61
77118;BME280;66072;50.238;19.228;2023-02-28T03:37:11;99695.39;;;-4.31;78.52
77118;BME280;66072;50.238;19.228;2023-02-28T03:39:43;99698.04;;;-4.31;78.59
77118;BME280;66072;50.238;19.228;2023-02-28T03:42:19;99701.23;;;-4.31;78.85
77118;BME280;66072;50.238;19.228;2023-02-28T03:44:51;99698.36;;;-4.32;78.85
77118;BME280;66072;50.238;19.228;2023-02-28T03:47:25;99698.17;;;-4.33;78.84
77118;BME280;66072;50.238;19.228;2023-02-28T03:50:08;99698.13;;;-4.34;78.91
77118;BME280;66072;50.238;19.228;2023-02-28T03:52:51;99705.03;;;-4.37;79.15
77118;BME280;66072;50.238;19.228;2023-02-28T03:55:21;99705.65;;;-4.39;79.47
77118;BME280;66072;50.238;19.228;2023-02-28T04:00:27;99703.97;;;-4.39;79.51
77118;BME280;66072;50.238;19.228;2023-02-28T04:02:57;99703.44;;;-4.40;79.66
77118;BME280;66072;50.238;19.228;2023-02-28T04:05:25;99706.95;;;-4.41;79.90
77118;BME280;66072;50.238;19.228;2023-02-28T04:07:54;99710.48;;;-4.39;79.84
77118;BME280;66072;50.238;19.228;2023-02-28T04:10:30;99708.15;;;-4.39;79.74
77118;BME280;66072;50.238;19.228;2023-02-28T04:12:57;99708.14;;;-4.40;79.74
77118;BME280;66072;50.238;19.228;2023-02-28T04:15:25;99711.45;;;-4.41;79.92
77118;BME280;66072;50.238;19.228;2023-02-28T04:17:53;99713.89;;;-4.42;79.94
77118;BME280;66072;50.238;19.228;2023-02-28T04:20:20;99714.15;;;-4.44;80.02
77118;BME280;66072;50.238;19.228;2023-02-28T04:22:48;99717.77;;;-4.46;80.11
77118;BME280;66072;50.238;19.228;2023-02-28T04:25:16;99724.02;;;-4.48;80.19
77118;BME280;66072;50.238;19.228;2023-02-28T04:27:43;99723.78;;;-4.51;80.39
77118;BME280;66072;50.238;19.228;2023-02-28T04:30:11;99725.91;;;-4.52;80.42
77118;BME280;66072;50.238;19.228;2023-02-28T04:32:39;99727.89;;;-4.53;80.46
77118;BME280;66072;50.238;19.228;2023-02-28T04:35:07;99730.98;;;-4.55;80.58
77118;BME280;66072;50.238;19.228;2023-02-28T04:37:38;99737.96;;;-4.56;80.44
77118;BME280;66072;50.238;19.228;2023-02-28T04:40:06;99742.11;;;-4.56;80.52
77118;BME280;66072;50.238;19.228;2023-02-28T04:42:34;99739.27;;;-4.56;80.81
77118;BME280;66072;50.238;19.228;2023-02-28T04:45:02;99736.64;;;-4.55;81.04
77118;BME280;66072;50.238;19.228;2023-02-28T04:47:30;99736.49;;;-4.55;81.13
77118;BME280;66072;50.238;19.228;2023-02-28T04:49:58;99739.75;;;-4.52;81.26
77118;BME280;66072;50.238;19.228;2023-02-28T04:52:27;99740.12;;;-4.51;81.32
77118;BME280;66072;50.238;19.228;2023-02-28T04:54:54;99744.09;;;-4.48;81.58
77118;BME280;66072;50.238;19.228;2023-02-28T04:57:22;99741.02;;;-4.45;81.60
77118;BME280;66072;50.238;19.228;2023-02-28T04:59:50;99742.11;;;-4.42;81.70
77118;BME280;66072;50.238;19.228;2023-02-28T05:02:17;99743.69;;;-4.40;81.71
77118;BME280;66072;50.238;19.228;2023-02-28T05:04:45;99743.91;;;-4.39;81.62
77118;BME280;66072;50.238;19.228;2023-02-28T05:07:12;99741.06;;;-4.39;81.71
77118;BME280;66072;50.238;19.228;2023-02-28T05:09:40;99740.02;;;-4.40;81.80
77118;BME280;66072;50.238;19.228;2023-02-28T05:12:08;99744.44;;;-4.42;81.49
77118;BME280;66072;50.238;19.228;2023-02-28T05:14:36;99744.99;;;-4.46;81.34
77118;BME280;66072;50.238;19.228;2023-02-28T05:17:04;99746.52;;;-4.50;81.53
77118;BME280;66072;50.238;19.228;2023-02-28T05:19:31;99744.05;;;-4.54;81.67
77118;BME280;66072;50.238;19.228;2023-02-28T05:21:59;99742.58;;;-4.58;81.62
77118;BME280;66072;50.238;19.228;2023-02-28T05:24:27;99738.63;;;-4.61;81.76
77118;BME280;66072;50.238;19.228;2023-02-28T05:26:54;99741.37;;;-4.64;81.94
77118;BME280;66072;50.238;19.228;2023-02-28T05:29:22;99748.09;;;-4.67;81.90
77118;BME280;66072;50.238;19.228;2023-02-28T05:31:50;99748.48;;;-4.70;81.98
77118;BME280;66072;50.238;19.228;2023-02-28T05:34:18;99749.55;;;-4.73;81.84
77118;BME280;66072;50.238;19.228;2023-02-28T05:36:45;99748.31;;;-4.75;82.13
77118;BME280;66072;50.238;19.228;2023-02-28T05:39:13;99754.45;;;-4.76;82.28
77118;BME280;66072;50.238;19.228;2023-02-28T05:41:42;99761.60;;;-4.77;82.30
77118;BME280;66072;50.238;19.228;2023-02-28T05:44:10;99764.27;;;-4.77;82.36
77118;BME280;66072;50.238;19.228;2023-02-28T05:46:38;99765.57;;;-4.78;82.41
77118;BME280;66072;50.238;19.228;2023-02-28T05:49:05;99761.58;;;-4.78;82.41
77118;BME280;66072;50.238;19.228;2023-02-28T05:51:33;99764.42;;;-4.77;82.60
77118;BME280;66072;50.238;19.228;2023-02-28T05:54:01;99771.25;;;-4.78;82.36
77118;BME280;66072;50.238;19.228;2023-02-28T05:56:29;99778.94;;;-4.77;82.69
77118;BME280;66072;50.238;19.228;2023-02-28T05:58:57;99775.80;;;-4.76;82.81
77118;BME280;66072;50.238;19.228;2023-02-28T06:01:39;99774.85;;;-4.75;83.04
77118;BME280;66072;50.238;19.228;2023-02-28T06:04:09;99775.64;;;-4.72;83.16
77118;BME280;66072;50.238;19.228;2023-02-28T06:06:55;99780.71;;;-4.70;83.14
77118;BME280;66072;50.238;19.228;2023-02-28T06:09:23;99780.64;;;-4.67;83.37
77118;BME280;66072;50.238;19.228;2023-02-28T06:11:50;99783.94;;;-4.63;83.28
77118;BME280;66072;50.238;19.228;2023-02-28T06:14:19;99782.70;;;-4.61;83.40
77118;BME280;66072;50.238;19.228;2023-02-28T06:16:47;99784.66;;;-4.57;83.41
77118;BME280;66072;50.238;19.228;2023-02-28T06:19:14;99788.47;;;-4.53;83.55
77118;BME280;66072;50.238;19.228;2023-02-28T06:21:43;99793.09;;;-4.50;83.61
77118;BME280;66072;50.238;19.228;2023-02-28T06:24:11;99801.42;;;-4.46;83.75
77118;BME280;66072;50.238;19.228;2023-02-28T06:26:38;99805.05;;;-4.42;83.72
77118;BME280;66072;50.238;19.228;2023-02-28T06:29:06;99808.55;;;-4.38;83.76
77118;BME280;66072;50.238;19.228;2023-02-28T06:31:34;99806.08;;;-4.32;83.79
77118;BME280;66072;50.238;19.228;2023-02-28T06:34:02;99808.45;;;-4.26;83.78
77118;BME280;66072;50.238;19.228;2023-02-28T06:36:29;99808.14;;;-4.20;83.80
77118;BME280;66072;50.238;19.228;2023-02-28T06:38:57;99811.15;;;-4.15;83.87
77118;BME280;66072;50.238;19.228;2023-02-28T06:41:25;99812.17;;;-4.10;83.74
77118;BME280;66072;50.238;19.228;2023-02-28T06:43:54;99811.02;;;-4.04;83.72
77118;BME280;66072;50.238;19.228;2023-02-28T06:46:22;99812.25;;;-3.98;83.63
77118;BME280;66072;50.238;19.228;2023-02-28T06:48:49;99810.58;;;-3.93;83.58
77118;BME280;66072;50.238;19.228;2023-02-28T06:51:19;99805.78;;;-3.86;83.69
77118;BME280;66072;50.238;19.228;2023-02-28T06:53:47;99809.34;;;-3.80;83.44
77118;BME280;66072;50.238;19.228;2023-02-28T06:56:16;99811.06;;;-3.73;83.38
77118;BME280;66072;50.238;19.228;2023-02-28T06:58:48;99810.94;;;-3.66;83.46
77118;BME280;66072;50.238;19.228;2023-02-28T07:01:16;99813.85;;;-3.59;83.13
77118;BME280;66072;50.238;19.228;2023-02-28T07:03:45;99817.21;;;-3.53;83.10
77118;BME280;66072;50.238;19.228;2023-02-28T07:06:13;99817.59;;;-3.46;83.09
77118;BME280;66072;50.238;19.228;2023-02-28T07:08:40;99826.52;;;-3.39;82.95
77118;BME280;66072;50.238;19.228;2023-02-28T07:11:08;99829.10;;;-3.31;83.10
77118;BME280;66072;50.238;19.228;2023-02-28T07:13:36;99829.66;;;-3.23;82.88
77118;BME280;66072;50.238;19.228;2023-02-28T07:16:06;99832.95;;;-3.14;82.83
77118;BME280;66072;50.238;19.228;2023-02-28T07:18:34;99834.75;;;-3.05;82.82
77118;BME280;66072;50.238;19.228;2023-02-28T07:21:07;99835.08;;;-2.94;82.64
77118;BME280;66072;50.238;19.228;2023-02-28T07:23:35;99830.84;;;-2.84;82.35
77118;BME280;66072;50.238;19.228;2023-02-28T07:26:04;99832.77;;;-2.76;81.82
77118;BME280;66072;50.238;19.228;2023-02-28T07:28:32;99834.84;;;-2.67;81.66
77118;BME280;66072;50.238;19.228;2023-02-28T07:31:04;99836.89;;;-2.60;81.45
77118;BME280;66072;50.238;19.228;2023-02-28T07:33:33;99831.58;;;-2.52;81.10
77118;BME280;66072;50.238;19.228;2023-02-28T07:36:12;99830.98;;;-2.44;80.73
77118;BME280;66072;50.238;19.228;2023-02-28T07:38:42;99831.00;;;-2.37;80.22
77118;BME280;66072;50.238;19.228;2023-02-28T07:41:11;99831.38;;;-2.29;79.61
77118;BME280;66072;50.238;19.228;2023-02-28T07:43:39;99830.73;;;-2.22;79.06
77118;BME280;66072;50.238;19.228;2023-02-28T07:46:08;99829.38;;;-2.16;78.90
77118;BME280;66072;50.238;19.228;2023-02-28T07:48:36;99834.23;;;-2.10;79.00
77118;BME280;66072;50.238;19.228;2023-02-28T07:51:04;99832.56;;;-2.03;78.68
77118;BME280;66072;50.238;19.228;2023-02-28T07:53:32;99830.70;;;-1.97;78.58
77118;BME280;66072;50.238;19.228;2023-02-28T07:56:01;99829.54;;;-1.91;78.39
77118;BME280;66072;50.238;19.228;2023-02-28T07:58:30;99831.23;;;-1.83;77.91
77118;BME280;66072;50.238;19.228;2023-02-28T08:01:05;99837.11;;;-1.77;77.80
77118;BME280;66072;50.238;19.228;2023-02-28T08:03:33;99836.29;;;-1.69;77.23
77118;BME280;66072;50.238;19.228;2023-02-28T08:06:01;99833.84;;;-1.60;77.10
77118;BME280;66072;50.238;19.228;2023-02-28T08:08:29;99833.36;;;-1.51;76.35
77118;BME280;66072;50.238;19.228;2023-02-28T08:11:01;99837.13;;;-1.42;76.20
77118;BME280;66072;50.238;19.228;2023-02-28T08:13:30;99836.89;;;-1.29;75.94
77118;BME280;66072;50.238;19.228;2023-02-28T08:15:57;99837.83;;;-1.19;75.53
77118;BME280;66072;50.238;19.228;2023-02-28T08:18:25;99832.36;;;-1.08;74.72
77118;BME280;66072;50.238;19.228;2023-02-28T08:20:53;99834.48;;;-0.95;74.85
77118;BME280;66072;50.238;19.228;2023-02-28T08:23:20;99836.80;;;-0.81;74.63
77118;BME280;66072;50.238;19.228;2023-02-28T08:25:55;99836.13;;;-0.65;74.40
77118;BME280;66072;50.238;19.228;2023-02-28T08:28:23;99833.48;;;-0.46;74.21
77118;BME280;66072;50.238;19.228;2023-02-28T08:30:54;99834.27;;;-0.32;72.69
77118;BME280;66072;50.238;19.228;2023-02-28T08:33:23;99833.04;;;-0.18;72.76
77118;BME280;66072;50.238;19.228;2023-02-28T08:35:55;99835.61;;;-0.06;71.45
77118;BME280;66072;50.238;19.228;2023-02-28T08:38:23;99832.35;;;0.10;71.82
77118;BME280;66072;50.238;19.228;2023-02-28T08:40:58;99830.26;;;0.25;71.20
77118;BME280;66072;50.238;19.228;2023-02-28T08:43:26;99837.88;;;0.37;70.68
77118;BME280;66072;50.238;19.228;2023-02-28T08:45:55;99835.87;;;0.49;70.44
77118;BME280;66072;50.238;19.228;2023-02-28T08:48:27;99833.31;;;0.58;68.42
77118;BME280;66072;50.238;19.228;2023-02-28T08:50:58;99834.11;;;0.65;68.17
77118;BME280;66072;50.238;19.228;2023-02-28T08:53:35;99836.70;;;0.80;67.59
77118;BME280;66072;50.238;19.228;2023-02-28T08:58:33;99835.77;;;1.09;67.11
77118;BME280;66072;50.238;19.228;2023-02-28T09:01:08;99838.92;;;1.19;64.75
77118;BME280;66072;50.238;19.228;2023-02-28T09:05:06;99834.95;;;1.38;64.43
77118;BME280;66072;50.238;19.228;2023-02-28T09:07:34;99836.45;;;1.50;63.74
77118;BME280;66072;50.238;19.228;2023-02-28T09:10:01;99833.23;;;1.62;64.30
77118;BME280;66072;50.238;19.228;2023-02-28T09:12:33;99837.77;;;1.76;63.65
77118;BME280;66072;50.238;19.228;2023-02-28T09:15:01;99838.26;;;1.90;62.77
77118;BME280;66072;50.238;19.228;2023-02-28T09:17:29;99834.05;;;1.90;60.14
77118;BME280;66072;50.238;19.228;2023-02-28T09:19:57;99836.30;;;1.81;59.76
77118;BME280;66072;50.238;19.228;2023-02-28T09:22:25;99834.25;;;1.78;60.25
77118;BME280;66072;50.238;19.228;2023-02-28T09:24:52;99833.66;;;1.86;61.13
77118;BME280;66072;50.238;19.228;2023-02-28T09:27:20;99840.55;;;1.99;61.76
77118;BME280;66072;50.238;19.228;2023-02-28T09:29:48;99838.48;;;2.11;62.31
77118;BME280;66072;50.238;19.228;2023-02-28T09:32:15;99835.71;;;2.22;61.37
77118;BME280;66072;50.238;19.228;2023-02-28T09:34:43;99835.52;;;2.19;59.66
77118;BME280;66072;50.238;19.228;2023-02-28T09:37:11;99834.64;;;2.15;60.22
77118;BME280;66072;50.238;19.228;2023-02-28T09:39:38;99836.67;;;2.16;59.99
77118;BME280;66072;50.238;19.228;2023-02-28T09:42:17;99836.14;;;2.14;60.03
77118;BME280;66072;50.238;19.228;2023-02-28T09:44:49;99839.98;;;2.11;60.18
77118;BME280;66072;50.238;19.228;2023-02-28T09:47:25;99838.31;;;2.11;60.40
77118;BME280;66072;50.238;19.228;2023-02-28T09:49:57;99841.35;;;2.12;59.96
77118;BME280;66072;50.238;19.228;2023-02-28T09:52:29;99843.12;;;2.19;60.83
77118;BME280;66072;50.238;19.228;2023-02-28T09:57:49;99840.75;;;2.58;60.61
77118;BME280;66072;50.238;19.228;2023-02-28T10:00:24;99843.81;;;2.84;58.89
77118;BME280;66072;50.238;19.228;2023-02-28T10:05:44;99841.05;;;3.31;55.76
77118;BME280;66072;50.238;19.228;2023-02-28T10:08:19;99839.13;;;3.52;54.28
77118;BME280;66072;50.238;19.228;2023-02-28T10:10:51;99837.97;;;3.62;53.43
77118;BME280;66072;50.238;19.228;2023-02-28T10:15:58;99840.85;;;4.57;53.50
77118;BME280;66072;50.238;19.228;2023-02-28T10:21:21;99835.31;;;5.75;51.86
77118;BME280;66072;50.238;19.228;2023-02-28T10:23:59;99836.08;;;6.25;51.49
77118;BME280;66072;50.238;19.228;2023-02-28T10:26:31;99831.89;;;6.60;48.99
77118;BME280;66072;50.238;19.228;2023-02-28T10:28:59;99824.17;;;6.88;48.24
77118;BME280;66072;50.238;19.228;2023-02-28T10:31:27;99818.61;;;6.99;47.54
77118;BME280;66072;50.238;19.228;2023-02-28T10:33:55;99814.52;;;7.16;49.25
77118;BME280;66072;50.238;19.228;2023-02-28T10:36:23;99814.11;;;7.65;48.95
77118;BME280;66072;50.238;19.228;2023-02-28T10:38:51;99812.79;;;8.00;45.72
77118;BME280;66072;50.238;19.228;2023-02-28T10:41:32;99811.26;;;8.22;46.43
77118;BME280;66072;50.238;19.228;2023-02-28T10:44:21;99811.31;;;8.53;46.03
77118;BME280;66072;50.238;19.228;2023-02-28T10:46:50;99812.11;;;8.87;45.74
77118;BME280;66072;50.238;19.228;2023-02-28T10:49:23;99807.41;;;9.10;45.20
77118;BME280;66072;50.238;19.228;2023-02-28T10:51:54;99801.29;;;9.44;43.70
77118;BME280;66072;50.238;19.228;2023-02-28T10:54:28;99803.97;;;9.46;42.22
77118;BME280;66072;50.238;19.228;2023-02-28T10:57:21;99803.77;;;9.31;41.93
77118;BME280;66072;50.238;19.228;2023-02-28T11:00:08;99797.25;;;9.41;43.40
77118;BME280;66072;50.238;19.228;2023-02-28T11:02:41;99795.38;;;9.88;43.62
77118;BME280;66072;50.238;19.228;2023-02-28T11:05:31;99793.34;;;10.48;42.66
77118;BME280;66072;50.238;19.228;2023-02-28T11:08:14;99786.25;;;11.10;41.44
77118;BME280;66072;50.238;19.228;2023-02-28T11:11:04;99785.05;;;11.64;39.19
77118;BME280;66072;50.238;19.228;2023-02-28T11:13:35;99785.50;;;12.17;39.44
77118;BME280;66072;50.238;19.228;2023-02-28T11:16:06;99782.23;;;12.29;36.92
77118;BME280;66072;50.238;19.228;2023-02-28T11:18:49;99781.83;;;12.46;37.52
77118;BME280;66072;50.238;19.228;2023-02-28T11:21:24;99779.67;;;12.79;36.93
77118;BME280;66072;50.238;19.228;2023-02-28T11:26:45;99775.62;;;13.41;36.53
77118;BME280;66072;50.238;19.228;2023-02-28T11:29:22;99766.54;;;13.63;33.05
77118;BME280;66072;50.238;19.228;2023-02-28T11:34:36;99763.35;;;13.79;33.45
77118;BME280;66072;50.238;19.228;2023-02-28T11:37:11;99762.50;;;14.26;34.64
77118;BME280;66072;50.238;19.228;2023-02-28T11:39:39;99755.41;;;14.77;33.03
77118;BME280;66072;50.238;19.228;2023-02-28T11:50:42;99743.17;;;15.92;31.72
77118;BME280;66072;50.238;19.228;2023-02-28T11:56:20;99739.02;;;16.62;28.51
77118;BME280;66072;50.238;19.228;2023-02-28T12:04:55;99736.59;;;17.74;28.42
77118;BME280;66072;50.238;19.228;2023-02-28T12:08:05;99729.36;;;17.66;26.99
77118;BME280;66072;50.238;19.228;2023-02-28T12:10:35;99729.77;;;18.00;28.64
77118;BME280;66072;50.238;19.228;2023-02-28T12:18:52;99722.66;;;19.40;25.55
77118;BME280;66072;50.238;19.228;2023-02-28T12:26:51;99723.41;;;19.50;25.51
77118;BME280;66072;50.238;19.228;2023-02-28T12:29:29;99723.86;;;20.05;25.51
77118;BME280;66072;50.238;19.228;2023-02-28T12:32:12;99719.81;;;20.14;23.01
77118;BME280;66072;50.238;19.228;2023-02-28T12:34:54;99721.73;;;20.19;24.21
77118;BME280;66072;50.238;19.228;2023-02-28T12:37:42;99719.59;;;19.93;21.71
77118;BME280;66072;50.238;19.228;2023-02-28T12:40:23;99722.13;;;20.08;24.44
77118;BME280;66072;50.238;19.228;2023-02-28T12:42:56;99717.20;;;20.56;24.25
77118;BME280;66072;50.238;19.228;2023-02-28T12:45:53;99718.19;;;20.92;24.02
77118;BME280;66072;50.238;19.228;2023-02-28T12:48:30;99716.06;;;21.20;22.80
77118;BME280;66072;50.238;19.228;2023-02-28T12:50:59;99711.95;;;21.10;23.08
77118;BME280;66072;50.238;19.228;2023-02-28T12:56:53;99708.48;;;21.59;22.62
77118;BME280;66072;50.238;19.228;2023-02-28T12:59:36;99707.84;;;22.11;21.94
77118;BME280;66072;50.238;19.228;2023-02-28T13:02:41;99707.98;;;22.30;21.84
77118;BME280;66072;50.238;19.228;2023-02-28T13:05:28;99702.59;;;22.73;22.89
77118;BME280;66072;50.238;19.228;2023-02-28T13:10:45;99708.05;;;21.98;20.37
77118;BME280;66072;50.238;19.228;2023-02-28T13:13:23;99707.79;;;21.49;21.88
77118;BME280;66072;50.238;19.228;2023-02-28T13:16:17;99705.61;;;21.36;22.16
77118;BME280;66072;50.238;19.228;2023-02-28T13:18:46;99708.16;;;21.54;21.37
77118;BME280;66072;50.238;19.228;2023-02-28T13:21:28;99708.65;;;22.04;22.00
77118;BME280;66072;50.238;19.228;2023-02-28T13:24:00;99694.83;;;22.67;21.31
77118;BME280;66072;50.238;19.228;2023-02-28T13:35:12;99693.41;;;24.14;19.97
77118;BME280;66072;50.238;19.228;2023-02-28T13:37:42;99691.30;;;24.08;20.13
77118;BME280;66072;50.238;19.228;2023-02-28T13:47:44;99692.41;;;23.10;20.34
77118;BME280;66072;50.238;19.228;2023-02-28T13:58:39;99685.62;;;21.74;19.48
77118;BME280;66072;50.238;19.228;2023-02-28T14:09:02;99674.20;;;22.01;20.18
77118;BME280;66072;50.238;19.228;2023-02-28T14:11:34;99666.49;;;22.35;20.44
77118;BME280;66072;50.238;19.228;2023-02-28T14:14:04;99662.47;;;22.57;20.33
77118;BME280;66072;50.238;19.228;2023-02-28T14:16:47;99663.72;;;22.37;20.07
77118;BME280;66072;50.238;19.228;2023-02-28T14:19:26;99666.88;;;21.70;20.43
77118;BME280;66072;50.238;19.228;2023-02-28T14:28:19;99665.14;;;19.60;21.51
77118;BME280;66072;50.238;19.228;2023-02-28T14:30:57;99662.02;;;19.54;23.05
77118;BME280;66072;50.238;19.228;2023-02-28T14:33:38;99659.39;;;20.00;22.95
77118;BME280;66072;50.238;19.228;2023-02-28T14:36:26;99655.41;;;20.37;22.07
77118;BME280;66072;50.238;19.228;2023-02-28T14:38:57;99655.47;;;20.20;21.53
77118;BME280;66072;50.238;19.228;2023-02-28T14:43:57;99648.65;;;19.66;21.71
77118;BME280;66072;50.238;19.228;2023-02-28T14:46:38;99647.61;;;19.71;20.89
77118;BME280;66072;50.238;19.228;2023-02-28T14:49:15;99648.28;;;19.41;21.31
77118;BME280;66072;50.238;19.228;2023-02-28T14:51:44;99649.41;;;19.50;22.43
77118;BME280;66072;50.238;19.228;2023-02-28T14:54:15;99651.86;;;19.59;22.28
77118;BME280;66072;50.238;19.228;2023-02-28T14:56:43;99651.67;;;19.51;21.73
77118;BME280;66072;50.238;19.228;2023-02-28T14:59:31;99653.26;;;19.53;22.21
77118;BME280;66072;50.238;19.228;2023-02-28T15:04:42;99651.49;;;19.51;21.24
77118;BME280;66072;50.238;19.228;2023-02-28T15:07:13;99649.46;;;18.95;21.63
77118;BME280;66072;50.238;19.228;2023-02-28T15:09:41;99649.71;;;18.68;22.62
77118;BME280;66072;50.238;19.228;2023-02-28T15:12:13;99648.88;;;18.44;23.00
77118;BME280;66072;50.238;19.228;2023-02-28T15:14:43;99648.94;;;18.23;22.89
77118;BME280;66072;50.238;19.228;2023-02-28T15:17:14;99653.91;;;17.45;23.04
77118;BME280;66072;50.238;19.228;2023-02-28T15:19:51;99649.64;;;15.32;24.14
77118;BME280;66072;50.238;19.228;2023-02-28T15:22:27;99653.40;;;13.09;26.67
77118;BME280;66072;50.238;19.228;2023-02-28T15:24:56;99654.27;;;11.42;28.91